Jacksonville, FL

1:40 PM EST on February 11, 2016 (GMT -0500)
Normandy Heights 32205 | | Change Station
CLOSE
Current Station
Personal Weather Station
Location: Jacksonville, FL
Elevation: 20 ft
Nearby Weather Stations

Elev 20 ft 30.30 °N, 81.76 °W | Updated 12 seconds ago

Clear
Clear
66.2 °F
Feels Like 66.2 °F
N
1.8
Wind Variable Wind from SSW
Gusts 2.5 mph

Today
High -- | Low -- °F
--% Chance of Precip.
Yesterday
High -- | Low -- °F
Precip. -- in
Pressure 30.23 in
Visibility 10.0 miles
Clouds Few 25000 ft
Dew Point 36 °F
Humidity 33%
Rainfall 0.00 in
Snow Depth Not available.
7:11 AM 6:11 PM
Waxing Crescent, 13% visible
METAR KNIP 111753Z 17008KT 10SM FEW250 16/01 A3024 RMK AO2 SLP235 T01610006 10161 20022 58029
Pressure 30.23 in
Visibility 10.0 miles
Clouds Few 25000 ft
Dew Point 36 °F
Humidity 33%
Rainfall 0.00 in
Snow Depth Not available.
7:11 AM 6:11 PM
Waxing Crescent, 13% visible
METAR KNIP 111753Z 17008KT 10SM FEW250 16/01 A3024 RMK AO2 SLP235 T01610006 10161 20022 58029

10-Day Weather Forecast

Almanac

Astronomy

Feb. 11, 2016 Rise Set
Actual Time
Civil Twilight
Nautical Twilight
Astronomical Twilight
Moon
Length of Visible Light
Length of Day
Tomorrow will be .
, % of the Moon is Illuminated

Today's Extremes

State Highs State Lows

Community

WunderPhotos

Upload Photos

1,892,122 photos uploaded!

WunderBlog® & News

Nearby

Air Quality

  Air Quality AQ Index Pollutant
Not available.

Snow Depth

Station Depth Elevation

Earthquake Activity

City Distance Mag. Time & Date
Minimum magnitude displayed is 2.5.

Coastal Water Temperatures

Place Temperature

Stations

Nearby Weather Stations

Station Location Temp. Windchill Dew Point Humidity Wind Precip. Elev Updated Type
                   

Watches & Warnings

There are currently no watches in effect.